.
WxDataArchive / Data Records for 2010-09-06
2010-09-05 September 2010 2010-09-07

Data Records for Monday, 06 September 2010

Time	Temp	Chill	HIndex	Humid	Dewpt	 Wind 	HiWind	WindDir	Rain 	Barom 
-----	----	-----	------	-----	-----	------	------	-------	-----	----- 
00:00	58.1	58.1	58.1	81	52.3	0	0	---	0.00	30.004 
00:05	58.0	58.0	58.0	81	52.2	0	0	---	0.00	30.004 
00:10	58.0	58.0	58.0	81	52.2	0	0	---	0.00	30.004 
00:15	58.0	58.0	58.0	82	52.5	0	0	---	0.00	30.013 
00:20	58.1	58.1	58.1	82	52.6	0	0	---	0.00	30.013 
00:25	58.3	58.3	58.3	83	53.2	0	0	---	0.00	30.013 
00:30	58.4	58.4	58.4	83	53.3	0	0	---	0.00	30.015 
00:35	58.6	58.6	58.6	82	53.1	0	0	---	0.00	30.015 
00:40	58.9	58.9	58.9	81	53.1	0	0	---	0.00	30.015 
00:45	59.0	59.0	59.0	81	53.2	0	0	---	0.00	30.026 
00:50	59.2	59.2	59.2	81	53.4	0	0	---	0.00	30.026 
00:55	59.3	59.3	59.3	80	53.1	0	0	---	0.00	30.026 
01:00	59.6	59.6	59.6	78	52.7	0	1	270	0.00	30.011 
01:05	59.9	59.9	59.9	77	52.7	0	0	---	0.00	30.011 
01:10	59.9	59.9	59.9	74	51.6	0	1	270	0.00	30.011 
01:15	60.2	60.2	60.2	73	51.5	0	0	---	0.00	30.006 
01:20	60.5	60.5	60.5	73	51.8	0	0	---	0.00	30.006 
01:25	60.7	60.7	60.7	73	52.0	0	0	---	0.00	30.006 
01:30	60.9	60.9	60.9	73	52.2	0	0	---	0.00	30.011 
01:35	60.9	60.9	60.9	72	51.8	0	0	---	0.00	30.011 
01:40	61.0	61.0	61.0	73	52.3	0	0	---	0.00	30.011 
01:45	61.0	61.0	61.0	74	52.6	0	0	---	0.00	30.010 
01:50	61.0	61.0	61.0	75	53.0	0	0	---	0.00	30.010 
01:55	60.9	60.9	60.9	75	52.9	0	0	---	0.00	30.010 
02:00	60.7	60.7	60.7	73	52.0	0	1	270	0.00	30.011 
02:05	60.7	60.7	60.7	71	51.2	0	1	270	0.00	30.011 
02:10	60.9	60.9	60.9	69	50.7	0	1	270	0.00	30.011 
02:15	61.0	61.0	61.0	67	50.0	0	1	270	0.00	30.014 
02:20	61.2	61.2	61.2	66	49.7	0	2	270	0.00	30.014 
02:25	61.5	61.5	61.5	64	49.2	0	2	248	0.00	30.014 
02:30	61.6	61.6	61.6	64	49.3	0	1	248	0.00	30.019 
02:35	61.8	61.8	61.8	62	48.6	0	1	248	0.00	30.019 
02:40	62.0	62.0	62.0	62	48.8	0	1	248	0.00	30.019 
02:45	62.0	62.0	62.0	62	48.8	0	1	248	0.00	30.005 
02:50	62.0	62.0	62.0	63	49.3	0	0	---	0.00	30.005 
02:55	62.0	62.0	62.0	63	49.3	0	1	248	0.00	30.005 
03:00	62.0	62.0	62.0	63	49.3	0	1	248	0.00	30.002 
03:05	62.0	62.0	62.0	63	49.3	0	1	248	0.00	30.002 
03:10	62.0	62.0	62.0	62	48.8	0	1	248	0.00	30.002 
03:15	62.1	62.1	62.1	63	49.3	0	1	248	0.00	29.993 
03:20	62.1	62.1	62.1	62	48.9	0	2	248	0.00	29.993 
03:25	62.1	62.1	62.1	62	48.9	0	3	248	0.00	29.993 
03:30	62.0	62.0	62.0	62	48.8	0	1	248	0.00	29.990 
03:35	62.0	62.0	62.0	62	48.8	0	2	248	0.00	29.990 
03:40	62.1	62.1	62.1	62	48.9	0	2	248	0.00	29.990 
03:45	62.1	62.1	62.1	62	48.9	0	1	270	0.00	29.990 
03:50	62.1	62.1	62.1	61	48.5	0	1	270	0.00	29.990 
03:55	62.1	62.1	62.1	62	48.9	0	0	---	0.00	29.990 
04:00	62.1	62.1	62.1	62	48.9	0	1	270	0.00	29.987 
04:05	62.1	62.1	62.1	62	48.9	0	1	270	0.00	29.987 
04:10	62.1	62.1	62.1	62	48.9	0	1	270	0.00	29.987 
04:15	62.1	62.1	62.1	62	48.9	0	1	270	0.00	29.989 
04:20	62.1	62.1	62.1	62	48.9	0	0	---	0.00	29.989 
04:25	62.0	62.0	62.0	62	48.8	0	0	---	0.00	29.989 
04:30	61.8	61.8	61.8	62	48.6	0	1	270	0.00	29.988 
04:35	61.8	61.8	61.8	63	49.1	0	0	---	0.00	29.988 
04:40	61.6	61.6	61.6	63	48.9	0	0	---	0.00	29.988 
04:45	61.5	61.5	61.5	62	48.4	0	0	---	0.00	29.976 
04:50	61.5	61.5	61.5	63	48.8	0	0	---	0.00	29.976 
04:55	61.5	61.5	61.5	63	48.8	0	1	270	0.00	29.976 
05:00	61.5	61.5	61.5	64	49.2	0	1	270	0.00	29.981 
05:05	61.3	61.3	61.3	63	48.6	0	0	---	0.00	29.981 
05:10	61.3	61.3	61.3	63	48.6	0	0	---	0.00	29.981 
05:15	61.3	61.3	61.3	63	48.6	0	0	---	0.00	29.984 
05:20	61.3	61.3	61.3	63	48.6	0	0	---	0.00	29.984 
05:25	61.3	61.3	61.3	63	48.6	0	0	---	0.00	29.984 
05:30	61.3	61.3	61.3	63	48.6	0	1	270	0.00	29.985 
05:35	61.3	61.3	61.3	63	48.6	0	0	---	0.00	29.985 
05:40	61.3	61.3	61.3	62	48.2	0	1	270	0.00	29.985 
05:45	61.5	61.5	61.5	62	48.4	0	1	270	0.00	29.977 
05:50	61.6	61.6	61.6	62	48.4	0	1	270	0.00	29.977 
05:55	61.6	61.6	61.6	61	48.0	0	1	270	0.00	29.977 
06:00	61.8	61.8	61.8	61	48.2	0	1	270	0.00	29.978 
06:05	61.8	61.8	61.8	62	48.6	0	0	---	0.00	29.978 
06:10	61.8	61.8	61.8	62	48.6	0	0	---	0.00	29.978 
06:15	62.0	62.0	62.0	61	48.4	0	2	270	0.00	30.000 
06:20	62.3	62.3	62.3	60	48.2	0	1	270	0.00	30.000 
06:25	62.6	62.6	62.6	60	48.5	0	0	---	0.00	30.000 
06:30	62.6	62.6	62.6	60	48.5	0	1	270	0.00	30.009 
06:35	62.6	62.6	62.6	59	48.1	0	1	270	0.00	30.009 
06:40	62.7	62.7	62.7	58	47.7	0	3	270	0.00	30.009 
06:45	62.9	62.9	62.9	59	48.3	0	0	---	0.00	30.010 
06:50	63.1	63.1	63.1	59	48.5	0	3	90	0.00	30.010 
06:55	63.1	63.1	63.1	59	48.5	0	1	90	0.00	30.010 
07:00	63.1	63.1	63.1	61	49.4	0	1	90	0.00	30.031 
07:05	62.9	62.9	62.9	61	49.2	0	0	---	0.00	30.031 
07:10	62.7	62.7	62.7	61	49.1	0	1	90	0.00	30.031 
07:15	62.7	62.7	62.7	62	49.5	0	0	---	0.00	30.035 
07:20	62.6	62.6	62.6	62	49.4	0	0	---	0.00	30.035 
07:25	62.4	62.4	62.4	62	49.2	0	1	90	0.00	30.035 
07:30	62.4	62.4	62.4	62	49.2	0	2	90	0.00	30.027 
07:35	62.4	62.4	62.4	63	49.6	0	1	90	0.00	30.027 
07:40	62.4	62.4	62.4	62	49.2	0	1	90	0.00	30.027 
07:45	62.4	62.4	62.4	61	48.8	1	3	90	0.00	30.013 
07:50	62.4	62.4	62.4	61	48.8	1	3	112	0.00	30.013 
07:55	62.6	62.6	62.6	61	49.0	0	2	45	0.00	30.013 
08:00	62.7	62.7	62.7	61	49.1	0	1	45	0.00	30.012 
08:05	62.7	62.7	62.7	61	49.1	0	1	45	0.00	30.012 
08:10	62.7	62.7	62.7	60	48.6	0	4	45	0.00	30.012 
08:15	62.9	62.9	62.9	59	48.3	1	4	90	0.00	30.012 
08:20	63.1	63.1	63.1	60	49.0	0	2	90	0.00	30.012 
08:25	63.1	63.1	63.1	60	49.0	1	3	112	0.00	30.012 
08:30	63.1	63.1	63.1	60	49.0	1	4	22	0.00	30.012 
08:35	63.2	63.2	63.2	60	49.1	1	4	22	0.00	30.012 
08:40	63.2	63.2	63.2	60	49.1	1	7	90	0.00	30.012 
08:45	63.5	63.5	63.5	60	49.4	0	4	90	0.00	30.014 
08:50	63.7	63.7	63.7	60	49.5	0	2	90	0.00	30.014 
08:55	63.9	63.9	63.9	59	49.3	1	4	112	0.00	30.014 
09:00	64.0	64.0	64.0	59	49.4	1	4	248	0.00	30.010 
09:05	64.2	64.2	64.2	58	49.1	1	5	0	0.00	30.010 
09:10	64.3	64.3	64.3	59	49.7	1	4	90	0.00	30.010 
09:15	64.5	64.5	64.5	58	49.4	1	5	45	0.00	30.000 
09:20	64.8	64.8	64.8	58	49.7	1	5	90	0.00	30.000 
09:25	65.0	65.0	65.0	57	49.4	1	4	45	0.00	30.000 
09:30	65.2	65.2	65.2	57	49.6	1	7	90	0.00	29.996 
09:35	65.0	65.0	65.0	58	49.9	1	4	90	0.00	29.996 
09:40	65.2	65.2	65.2	58	50.0	1	4	90	0.00	29.996 
09:45	65.5	65.5	65.5	57	49.9	1	6	248	0.00	29.996 
09:50	65.8	65.8	65.8	56	49.7	2	6	270	0.00	29.996 
09:55	66.3	66.3	66.3	56	50.1	1	5	248	0.00	29.996 
10:00	67.1	67.1	67.1	55	50.4	1	4	90	0.00	29.991 
10:05	67.9	67.9	67.9	53	50.1	2	6	270	0.00	29.991 
10:10	68.3	68.3	68.3	54	51.0	1	6	90	0.00	29.991 
10:15	68.6	68.6	68.6	53	50.8	1	6	90	0.00	29.993 
10:20	69.1	69.1	69.1	53	51.2	1	4	68	0.00	29.993 
10:25	69.3	69.3	69.3	52	50.9	1	4	248	0.00	29.993 
10:30	69.6	69.6	69.6	52	51.2	2	5	248	0.00	29.996 
10:35	70.3	70.3	70.3	51	51.3	2	6	248	0.00	29.996 
10:40	70.9	70.9	70.9	50	51.3	2	6	270	0.00	29.996 
10:45	71.5	71.5	71.5	48	50.8	1	6	270	0.00	29.992 
10:50	72.1	72.1	72.1	49	51.9	1	4	225	0.00	29.992 
10:55	72.7	72.7	72.7	47	51.3	1	5	270	0.00	29.992 
11:00	73.2	73.2	73.2	47	51.7	2	7	270	0.00	29.993 
11:05	73.3	73.3	73.3	44	50.1	2	9	270	0.00	29.993 
11:10	73.7	73.7	73.7	46	51.6	1	3	248	0.00	29.993 
11:15	74.4	74.4	74.4	42	49.8	2	6	270	0.00	29.988 
11:20	74.7	74.7	74.7	41	49.4	2	7	45	0.00	29.988 
11:25	75.1	75.1	77.6	41	49.8	2	7	292	0.00	29.988 
11:30	75.4	75.4	77.6	40	49.4	2	6	292	0.00	29.980 
11:35	76.1	76.1	77.9	41	50.7	1	4	270	0.00	29.980 
11:40	76.8	76.8	78.1	40	50.6	1	3	270	0.00	29.980 
11:45	76.8	76.8	78.1	39	49.9	1	5	270	0.00	29.994 
11:50	77.0	77.0	78.3	41	51.5	1	4	270	0.00	29.994 
11:55	77.7	77.7	78.4	37	49.3	2	6	270	0.00	29.994 
12:00	78.1	78.1	78.5	36	48.9	2	6	292	0.00	29.992 
12:05	77.0	77.0	78.1	37	48.7	2	6	270	0.00	29.992 
12:10	77.2	77.2	78.3	39	50.3	2	4	270	0.00	29.992 
12:15	77.9	77.9	78.6	39	50.9	2	5	270	0.00	29.997 
12:20	78.1	78.1	78.6	37	49.7	1	4	292	0.00	29.997 
12:25	78.5	78.5	78.8	37	50.0	1	4	270	0.00	29.997 
12:30	79.2	79.2	79.1	35	49.2	1	4	270	0.00	30.005 
12:35	79.4	79.4	79.2	35	49.3	1	5	248	0.00	30.005 
12:40	79.6	79.6	79.4	36	50.3	1	3	248	0.00	30.005 
12:45	79.6	79.6	79.2	33	47.9	2	7	270	0.00	30.003 
12:50	79.4	79.4	79.1	34	48.6	1	5	270	0.00	30.003 
12:55	79.4	79.4	79.2	35	49.3	1	5	270	0.00	30.003 
13:00	79.4	79.4	79.2	35	49.3	0	2	270	0.00	30.018 
13:05	79.0	79.0	79.0	35	49.0	0	2	270	0.00	30.018 
13:10	78.8	78.8	78.8	35	48.8	1	3	270	0.00	30.018 
13:15	78.6	78.6	78.8	36	49.4	0	2	270	0.00	30.010 
13:20	78.8	78.8	78.8	35	48.8	1	3	270	0.00	30.010 
13:25	79.9	79.9	79.8	39	52.7	0	2	135	0.00	30.010 
13:30	81.4	81.4	80.4	34	50.3	0	2	135	0.00	30.005 
13:35	82.6	82.6	81.4	35	52.1	1	3	202	0.00	30.005 
13:40	83.0	83.0	81.2	30	48.3	1	4	112	0.00	30.005 
13:45	82.4	82.4	80.7	29	46.9	1	4	270	0.00	30.001 
13:50	82.0	82.0	80.7	32	49.2	1	3	292	0.00	30.001 
13:55	82.4	82.4	80.9	32	49.5	1	4	270	0.00	30.001 
14:00	82.8	82.8	80.9	28	46.3	2	6	270	0.00	29.998 
14:05	83.0	83.0	81.2	30	48.3	2	5	248	0.00	29.998 
14:10	82.6	82.6	80.8	29	47.1	2	5	270	0.00	29.998 
14:15	82.0	82.0	80.5	30	47.5	2	5	270	0.00	29.994 
14:20	82.2	82.2	80.7	31	48.5	2	6	270	0.00	29.994 
14:25	82.6	82.6	80.9	30	48.0	2	6	270	0.00	29.994 
14:30	82.8	82.8	81.0	29	47.3	3	6	270	0.00	29.997 
14:35	83.0	83.0	81.2	30	48.3	1	6	270	0.00	29.997 
14:40	83.4	83.4	81.4	28	46.8	2	5	270	0.00	29.997 
14:45	83.8	83.8	81.7	29	48.1	1	5	0	0.00	29.985 
14:50	84.3	84.3	82.1	28	47.6	1	3	270	0.00	29.985 
14:55	84.5	84.5	82.3	29	48.7	1	4	292	0.00	29.985 
15:00	84.7	84.7	82.4	28	48.0	2	4	45	0.00	29.978 
15:05	84.5	84.5	82.1	27	46.8	1	5	292	0.00	29.978 
15:10	84.7	84.7	82.7	31	50.7	1	4	90	0.00	29.978 
15:15	84.9	84.9	82.6	28	48.1	2	6	45	0.00	29.970 
15:20	84.7	84.7	82.4	28	48.0	2	5	90	0.00	29.970 
15:25	84.5	84.5	82.2	28	47.8	2	6	90	0.00	29.970 
15:30	84.3	84.3	82.2	29	48.5	1	5	270	0.00	29.965 
15:35	84.5	84.5	82.2	28	47.8	1	3	270	0.00	29.965 
15:40	85.1	85.1	82.7	28	48.3	0	2	90	0.00	29.965 
15:45	85.5	85.5	83.0	27	47.7	2	5	292	0.00	29.956 
15:50	85.5	85.5	83.3	30	50.5	1	5	248	0.00	29.956 
15:55	85.7	85.7	83.1	27	47.8	2	7	248	0.00	29.956 
16:00	85.5	85.5	83.1	28	48.6	1	4	292	0.00	29.960 
16:05	84.9	84.9	82.6	28	48.1	1	6	248	0.00	29.960 
16:10	84.5	84.5	82.1	27	46.8	1	4	292	0.00	29.960 
16:15	84.0	84.0	81.8	28	47.4	1	6	90	0.00	29.952 
16:20	83.8	83.8	81.7	29	48.1	0	3	248	0.00	29.952 
16:25	83.6	83.6	81.7	30	48.9	1	5	270	0.00	29.952 
16:30	83.4	83.4	81.4	29	47.8	1	3	270	0.00	29.943 
16:35	83.6	83.6	81.7	30	48.9	1	3	248	0.00	29.943 
16:40	83.8	83.8	81.9	31	49.9	1	4	248	0.00	29.943 
16:45	84.0	84.0	81.7	27	46.4	1	3	90	0.00	29.937 
16:50	84.0	84.0	82.0	30	49.2	0	2	315	0.00	29.937 
16:55	83.8	83.8	81.7	29	48.1	1	6	248	0.00	29.937 
17:00	83.6	83.6	81.5	28	47.0	1	4	270	0.00	29.936 
17:05	83.6	83.6	81.4	27	46.1	1	4	90	0.00	29.936 
17:10	83.6	83.6	81.4	27	46.1	1	5	292	0.00	29.936 
17:15	83.4	83.4	81.3	27	45.9	1	4	248	0.00	29.933 
17:20	83.4	83.4	81.4	28	46.8	0	4	90	0.00	29.933 
17:25	83.4	83.4	81.3	27	45.9	1	5	90	0.00	29.933 
17:30	83.4	83.4	81.4	28	46.8	0	3	270	0.00	29.935 
17:35	83.4	83.4	81.3	27	45.9	1	3	270	0.00	29.935 
17:40	83.2	83.2	81.3	29	47.6	1	3	225	0.00	29.935 
17:45	83.0	83.0	81.1	29	47.4	1	6	248	0.00	29.925 
17:50	83.0	83.0	81.1	29	47.4	0	2	248	0.00	29.925 
17:55	82.8	82.8	81.1	30	48.2	0	2	202	0.00	29.925 
18:00	82.6	82.6	80.8	29	47.1	0	3	292	0.00	29.920 
18:05	82.4	82.4	80.8	30	47.8	0	2	292	0.00	29.920 
18:10	82.4	82.4	80.9	31	48.7	0	1	292	0.00	29.920 
18:15	82.2	82.2	80.7	31	48.5	0	3	292	0.00	29.911 
18:20	82.2	82.2	80.6	30	47.7	1	3	0	0.00	29.911 
18:25	82.0	82.0	80.5	30	47.5	1	4	90	0.00	29.911 
18:30	82.0	82.0	80.6	31	48.4	0	2	112	0.00	29.918 
18:35	81.8	81.8	80.5	32	49.0	0	1	112	0.00	29.918 
18:40	81.6	81.6	80.4	32	48.9	0	1	112	0.00	29.918 
18:45	81.4	81.4	80.2	32	48.7	0	1	112	0.00	29.918 
18:50	81.2	81.2	80.0	31	47.7	1	4	112	0.00	29.918 
18:55	81.2	81.2	80.1	32	48.5	0	3	90	0.00	29.918 
19:00	81.1	81.1	80.1	33	49.2	0	1	45	0.00	29.920 
19:05	80.9	80.9	80.0	33	49.1	0	2	45	0.00	29.920 
19:10	80.9	80.9	79.8	31	47.4	0	1	270	0.00	29.920 
19:15	80.9	80.9	79.9	32	48.2	0	1	270	0.00	29.920 
19:20	80.9	80.9	79.9	32	48.2	1	3	270	0.00	29.920 
19:25	80.9	80.9	79.8	31	47.4	0	1	90	0.00	29.920 
19:30	81.1	81.1	79.9	31	47.6	0	2	112	0.00	29.920 
19:35	81.1	81.1	79.9	31	47.6	0	4	112	0.00	29.920 
19:40	81.1	81.1	79.9	31	47.6	0	2	112	0.00	29.920 
19:45	80.9	80.9	79.8	31	47.4	0	2	112	0.00	29.918 
19:50	80.7	80.7	79.7	31	47.2	0	1	158	0.00	29.918 
19:55	80.5	80.5	79.6	31	47.1	0	3	270	0.00	29.918 
20:00	80.5	80.5	79.6	31	47.1	0	2	270	0.00	29.918 
20:05	80.1	80.1	79.3	31	46.7	0	2	270	0.00	29.918 
20:10	79.9	79.9	79.2	31	46.5	0	1	270	0.00	29.918 
20:15	79.6	79.6	79.1	32	47.1	0	5	315	0.00	29.920 
20:20	79.4	79.4	79.0	32	46.9	0	2	315	0.00	29.920 
20:25	79.2	79.2	78.9	32	46.8	0	4	180	0.00	29.920 
20:30	79.0	79.0	78.8	32	46.6	0	1	68	0.00	29.923 
20:35	78.8	78.8	78.6	32	46.4	0	2	68	0.00	29.923 
20:40	78.6	78.6	78.5	32	46.3	0	3	68	0.00	29.923 
20:45	78.6	78.6	78.5	32	46.3	0	3	68	0.00	29.923 
20:50	78.6	78.6	78.5	32	46.3	1	4	112	0.00	29.923 
20:55	78.8	78.8	78.6	32	46.4	1	3	0	0.00	29.923 
21:00	78.6	78.6	78.6	33	47.1	0	1	68	0.00	29.924 
21:05	78.6	78.6	78.6	33	47.1	1	3	68	0.00	29.924 
21:10	78.5	78.5	78.6	33	47.0	1	2	45	0.00	29.924 
21:15	78.5	78.5	78.6	34	47.8	1	6	248	0.00	29.921 
21:20	78.5	78.5	78.6	34	47.8	1	4	45	0.00	29.921 
21:25	78.3	78.3	78.5	34	47.6	0	3	90	0.00	29.921 
21:30	78.3	78.3	78.5	34	47.6	1	6	292	0.00	29.922 
21:35	78.1	78.1	78.4	34	47.4	1	6	68	0.00	29.922 
21:40	78.1	78.1	78.4	34	47.4	1	5	68	0.00	29.922 
21:45	77.9	77.9	78.4	35	48.0	1	3	90	0.00	29.923 
21:50	77.7	77.7	78.3	35	47.8	1	5	112	0.00	29.923 
21:55	77.7	77.7	78.3	35	47.8	1	4	90	0.00	29.923 
22:00	77.6	77.6	78.2	35	47.8	1	3	90	0.00	29.924 
22:05	77.6	77.6	78.2	35	47.8	1	4	68	0.00	29.924 
22:10	77.6	77.6	78.2	35	47.8	1	5	90	0.00	29.924 
22:15	77.4	77.4	78.1	35	47.6	1	2	315	0.00	29.918 
22:20	77.0	77.0	78.0	35	47.2	0	2	270	0.00	29.918 
22:25	76.8	76.8	77.9	35	47.1	1	3	315	0.00	29.918 
22:30	76.7	76.7	77.9	35	47.0	0	3	68	0.00	29.920 
22:35	76.5	76.5	77.8	36	47.5	0	5	90	0.00	29.920 
22:40	76.3	76.3	77.7	35	46.6	1	5	22	0.00	29.920 
22:45	76.1	76.1	77.6	35	46.4	0	3	270	0.00	29.927 
22:50	76.0	76.0	77.6	36	47.1	0	4	135	0.00	29.927 
22:55	75.8	75.8	77.6	36	46.9	1	3	292	0.00	29.927 
23:00	75.8	75.8	77.6	36	46.9	1	3	315	0.00	29.945 
23:05	75.6	75.6	77.6	37	47.5	0	2	338	0.00	29.945 
23:10	75.3	75.3	77.5	37	47.2	0	1	338	0.00	29.945 
23:15	75.1	75.1	77.4	38	47.7	0	3	292	0.00	29.947 
23:20	74.7	74.7	74.7	38	47.4	0	1	292	0.00	29.947 
23:25	74.6	74.6	74.6	39	48.0	0	3	248	0.00	29.947 
23:30	74.2	74.2	74.2	39	47.6	0	1	248	0.00	29.943 
23:35	74.0	74.0	74.0	39	47.5	0	2	22	0.00	29.943 
23:40	74.0	74.0	74.0	39	47.5	0	1	22	0.00	29.943 
23:45	73.9	73.9	73.9	40	48.0	0	0	---	0.00	29.947 
23:50	73.7	73.7	73.7	40	47.9	0	0	---	0.00	29.947 
23:55	73.3	73.3	73.3	41	48.2	0	1	0	0.00	29.947 

CoCoRaHS
IN-AL-39
A2 Web Hosting
Creative Commons License
GoDaddy
search engine by freefind advanced

loaded 2018-11-22 05:50:43 • last modified 2010-11-18 10:43:29
Privacy PolicyDisclaimer
• wx.awcolley.com is powered by PmWiki v.2002016 •
• all content (unless otherwise noted) © 2018 A W Colley